sensor_id;sensor_type;location;lat;lon;timestamp;P1;durP1;ratioP1;P2;durP2;ratioP2
84670;SDS011;74898;42.716;23.624;2024-03-25T00:00:22;0.95;;;0.60;;
84670;SDS011;74898;42.716;23.624;2024-03-25T00:02:50;2.03;;;0.75;;
84670;SDS011;74898;42.716;23.624;2024-03-25T00:05:16;1.13;;;1.02;;
84670;SDS011;74898;42.716;23.624;2024-03-25T00:07:47;0.70;;;0.63;;
84670;SDS011;74898;42.716;23.624;2024-03-25T00:10:13;1.10;;;0.73;;
84670;SDS011;74898;42.716;23.624;2024-03-25T00:12:39;0.82;;;0.70;;
84670;SDS011;74898;42.716;23.624;2024-03-25T00:15:05;4.18;;;0.70;;
84670;SDS011;74898;42.716;23.624;2024-03-25T00:17:31;0.60;;;0.57;;
84670;SDS011;74898;42.716;23.624;2024-03-25T00:19:56;0.50;;;0.50;;
84670;SDS011;74898;42.716;23.624;2024-03-25T00:22:23;0.82;;;0.65;;
84670;SDS011;74898;42.716;23.624;2024-03-25T00:24:50;0.50;;;0.50;;
84670;SDS011;74898;42.716;23.624;2024-03-25T00:27:16;0.57;;;0.57;;
84670;SDS011;74898;42.716;23.624;2024-03-25T00:29:42;0.30;;;0.30;;
84670;SDS011;74898;42.716;23.624;2024-03-25T00:32:09;0.32;;;0.30;;
84670;SDS011;74898;42.716;23.624;2024-03-25T00:34:35;0.30;;;0.30;;
84670;SDS011;74898;42.716;23.624;2024-03-25T00:37:01;0.43;;;0.43;;
84670;SDS011;74898;42.716;23.624;2024-03-25T00:39:27;0.65;;;0.38;;
84670;SDS011;74898;42.716;23.624;2024-03-25T00:41:53;0.20;;;0.20;;
84670;SDS011;74898;42.716;23.624;2024-03-25T00:44:19;0.63;;;0.32;;
84670;SDS011;74898;42.716;23.624;2024-03-25T00:46:45;0.73;;;0.32;;
84670;SDS011;74898;42.716;23.624;2024-03-25T00:49:11;0.17;;;0.17;;
84670;SDS011;74898;42.716;23.624;2024-03-25T00:51:37;0.35;;;0.28;;
84670;SDS011;74898;42.716;23.624;2024-03-25T00:54:03;0.65;;;0.13;;
84670;SDS011;74898;42.716;23.624;2024-03-25T00:56:30;0.00;;;0.00;;
84670;SDS011;74898;42.716;23.624;2024-03-25T00:58:56;0.10;;;0.10;;
84670;SDS011;74898;42.716;23.624;2024-03-25T01:01:23;0.10;;;0.10;;
84670;SDS011;74898;42.716;23.624;2024-03-25T01:03:49;0.52;;;0.38;;
84670;SDS011;74898;42.716;23.624;2024-03-25T01:06:14;0.73;;;0.25;;
84670;SDS011;74898;42.716;23.624;2024-03-25T01:08:40;0.38;;;0.32;;
84670;SDS011;74898;42.716;23.624;2024-03-25T01:11:05;1.58;;;0.40;;
84670;SDS011;74898;42.716;23.624;2024-03-25T01:13:31;0.22;;;0.20;;
84670;SDS011;74898;42.716;23.624;2024-03-25T01:15:56;0.75;;;0.40;;
84670;SDS011;74898;42.716;23.624;2024-03-25T01:18:22;0.40;;;0.40;;
84670;SDS011;74898;42.716;23.624;2024-03-25T01:20:48;0.63;;;0.63;;
84670;SDS011;74898;42.716;23.624;2024-03-25T01:23:15;1.52;;;0.70;;
84670;SDS011;74898;42.716;23.624;2024-03-25T01:25:40;0.50;;;0.50;;
84670;SDS011;74898;42.716;23.624;2024-03-25T01:28:06;0.73;;;0.73;;
84670;SDS011;74898;42.716;23.624;2024-03-25T01:30:31;0.50;;;0.50;;
84670;SDS011;74898;42.716;23.624;2024-03-25T01:32:57;0.77;;;0.73;;
84670;SDS011;74898;42.716;23.624;2024-03-25T01:35:22;0.60;;;0.60;;
84670;SDS011;74898;42.716;23.624;2024-03-25T01:37:48;0.90;;;0.90;;
84670;SDS011;74898;42.716;23.624;2024-03-25T01:40:14;3.38;;;0.90;;
84670;SDS011;74898;42.716;23.624;2024-03-25T01:42:40;0.73;;;0.73;;
84670;SDS011;74898;42.716;23.624;2024-03-25T01:45:06;0.65;;;0.65;;
84670;SDS011;74898;42.716;23.624;2024-03-25T01:47:33;1.30;;;1.20;;
84670;SDS011;74898;42.716;23.624;2024-03-25T01:50:00;2.03;;;1.50;;
84670;SDS011;74898;42.716;23.624;2024-03-25T01:54:54;1.45;;;1.20;;
84670;SDS011;74898;42.716;23.624;2024-03-25T01:57:20;1.42;;;1.20;;
84670;SDS011;74898;42.716;23.624;2024-03-25T01:59:46;2.30;;;1.40;;
84670;SDS011;74898;42.716;23.624;2024-03-25T02:02:12;1.05;;;0.90;;
84670;SDS011;74898;42.716;23.624;2024-03-25T02:04:39;0.60;;;0.60;;
84670;SDS011;74898;42.716;23.624;2024-03-25T02:07:06;1.67;;;0.70;;
84670;SDS011;74898;42.716;23.624;2024-03-25T02:11:59;0.57;;;0.57;;
84670;SDS011;74898;42.716;23.624;2024-03-25T02:14:25;1.15;;;1.05;;
84670;SDS011;74898;42.716;23.624;2024-03-25T02:16:51;2.35;;;1.42;;
84670;SDS011;74898;42.716;23.624;2024-03-25T02:19:16;1.55;;;1.23;;
84670;SDS011;74898;42.716;23.624;2024-03-25T02:21:43;1.63;;;1.33;;
84670;SDS011;74898;42.716;23.624;2024-03-25T02:24:09;1.75;;;1.40;;
84670;SDS011;74898;42.716;23.624;2024-03-25T02:26:35;1.33;;;1.20;;
84670;SDS011;74898;42.716;23.624;2024-03-25T02:29:01;1.52;;;1.35;;
84670;SDS011;74898;42.716;23.624;2024-03-25T02:31:27;1.40;;;1.30;;
84670;SDS011;74898;42.716;23.624;2024-03-25T02:33:52;1.02;;;0.90;;
84670;SDS011;74898;42.716;23.624;2024-03-25T02:36:18;1.20;;;1.10;;
84670;SDS011;74898;42.716;23.624;2024-03-25T02:38:44;1.27;;;1.08;;
84670;SDS011;74898;42.716;23.624;2024-03-25T02:41:09;2.67;;;1.05;;
84670;SDS011;74898;42.716;23.624;2024-03-25T02:43:35;1.70;;;1.60;;
84670;SDS011;74898;42.716;23.624;2024-03-25T02:46:01;2.25;;;1.35;;
84670;SDS011;74898;42.716;23.624;2024-03-25T02:48:26;1.33;;;1.23;;
84670;SDS011;74898;42.716;23.624;2024-03-25T02:50:51;3.00;;;1.10;;
84670;SDS011;74898;42.716;23.624;2024-03-25T02:53:17;0.95;;;0.95;;
84670;SDS011;74898;42.716;23.624;2024-03-25T02:55:43;1.33;;;0.90;;
84670;SDS011;74898;42.716;23.624;2024-03-25T02:58:08;1.30;;;1.02;;
84670;SDS011;74898;42.716;23.624;2024-03-25T03:00:34;0.82;;;0.82;;
84670;SDS011;74898;42.716;23.624;2024-03-25T03:02:59;1.15;;;1.00;;
84670;SDS011;74898;42.716;23.624;2024-03-25T03:05:25;2.20;;;1.00;;
84670;SDS011;74898;42.716;23.624;2024-03-25T03:07:50;0.57;;;0.57;;
84670;SDS011;74898;42.716;23.624;2024-03-25T03:10:16;1.17;;;1.08;;
84670;SDS011;74898;42.716;23.624;2024-03-25T03:12:42;1.02;;;0.85;;
84670;SDS011;74898;42.716;23.624;2024-03-25T03:15:07;0.70;;;0.70;;
84670;SDS011;74898;42.716;23.624;2024-03-25T03:17:33;0.82;;;0.70;;
84670;SDS011;74898;42.716;23.624;2024-03-25T03:19:58;0.70;;;0.70;;
84670;SDS011;74898;42.716;23.624;2024-03-25T03:22:25;0.85;;;0.85;;
84670;SDS011;74898;42.716;23.624;2024-03-25T03:24:50;0.90;;;0.90;;
84670;SDS011;74898;42.716;23.624;2024-03-25T03:27:16;0.68;;;0.68;;
84670;SDS011;74898;42.716;23.624;2024-03-25T03:29:42;1.30;;;1.20;;
84670;SDS011;74898;42.716;23.624;2024-03-25T03:32:07;1.90;;;1.17;;
84670;SDS011;74898;42.716;23.624;2024-03-25T03:34:33;1.48;;;1.30;;
84670;SDS011;74898;42.716;23.624;2024-03-25T03:36:59;1.40;;;1.10;;
84670;SDS011;74898;42.716;23.624;2024-03-25T03:39:24;2.03;;;1.50;;
84670;SDS011;74898;42.716;23.624;2024-03-25T03:41:49;5.28;;;1.60;;
84670;SDS011;74898;42.716;23.624;2024-03-25T03:44:15;2.15;;;1.30;;
84670;SDS011;74898;42.716;23.624;2024-03-25T03:46:41;2.55;;;1.52;;
84670;SDS011;74898;42.716;23.624;2024-03-25T03:49:06;2.70;;;1.88;;
84670;SDS011;74898;42.716;23.624;2024-03-25T03:51:32;2.38;;;1.80;;
84670;SDS011;74898;42.716;23.624;2024-03-25T03:53:57;6.70;;;2.03;;
84670;SDS011;74898;42.716;23.624;2024-03-25T03:56:23;2.25;;;1.58;;
84670;SDS011;74898;42.716;23.624;2024-03-25T03:58:48;3.47;;;1.88;;
84670;SDS011;74898;42.716;23.624;2024-03-25T04:01:17;5.07;;;2.60;;
84670;SDS011;74898;42.716;23.624;2024-03-25T04:03:43;2.50;;;2.05;;
84670;SDS011;74898;42.716;23.624;2024-03-25T04:06:13;2.55;;;1.95;;
84670;SDS011;74898;42.716;23.624;2024-03-25T04:08:41;3.40;;;2.17;;
84670;SDS011;74898;42.716;23.624;2024-03-25T04:11:07;5.13;;;2.58;;
84670;SDS011;74898;42.716;23.624;2024-03-25T04:13:33;4.03;;;2.33;;
84670;SDS011;74898;42.716;23.624;2024-03-25T04:16:02;3.58;;;2.17;;
84670;SDS011;74898;42.716;23.624;2024-03-25T04:18:29;5.95;;;2.65;;
84670;SDS011;74898;42.716;23.624;2024-03-25T04:20:56;6.32;;;3.50;;
84670;SDS011;74898;42.716;23.624;2024-03-25T04:23:21;4.63;;;2.67;;
84670;SDS011;74898;42.716;23.624;2024-03-25T04:25:48;5.40;;;3.20;;
84670;SDS011;74898;42.716;23.624;2024-03-25T04:28:14;5.55;;;3.13;;
84670;SDS011;74898;42.716;23.624;2024-03-25T04:30:39;6.68;;;3.92;;
84670;SDS011;74898;42.716;23.624;2024-03-25T04:33:04;7.38;;;4.43;;
84670;SDS011;74898;42.716;23.624;2024-03-25T04:35:30;8.93;;;4.53;;
84670;SDS011;74898;42.716;23.624;2024-03-25T04:37:55;9.27;;;4.75;;
84670;SDS011;74898;42.716;23.624;2024-03-25T04:40:21;8.70;;;4.40;;
84670;SDS011;74898;42.716;23.624;2024-03-25T04:42:47;9.38;;;4.50;;
84670;SDS011;74898;42.716;23.624;2024-03-25T04:45:13;10.68;;;5.10;;
84670;SDS011;74898;42.716;23.624;2024-03-25T04:47:39;7.57;;;4.15;;
84670;SDS011;74898;42.716;23.624;2024-03-25T04:50:05;10.88;;;5.18;;
84670;SDS011;74898;42.716;23.624;2024-03-25T04:52:32;12.32;;;5.22;;
84670;SDS011;74898;42.716;23.624;2024-03-25T04:54:57;14.35;;;5.72;;
84670;SDS011;74898;42.716;23.624;2024-03-25T04:57:23;17.27;;;6.07;;
84670;SDS011;74898;42.716;23.624;2024-03-25T04:59:49;14.88;;;6.47;;
84670;SDS011;74898;42.716;23.624;2024-03-25T05:02:14;16.33;;;6.93;;
84670;SDS011;74898;42.716;23.624;2024-03-25T05:04:40;15.65;;;6.82;;
84670;SDS011;74898;42.716;23.624;2024-03-25T05:07:06;12.93;;;6.30;;
84670;SDS011;74898;42.716;23.624;2024-03-25T05:09:31;13.90;;;6.50;;
84670;SDS011;74898;42.716;23.624;2024-03-25T05:11:57;13.65;;;6.85;;
84670;SDS011;74898;42.716;23.624;2024-03-25T05:14:22;16.30;;;7.03;;
84670;SDS011;74898;42.716;23.624;2024-03-25T05:16:48;15.60;;;6.18;;
84670;SDS011;74898;42.716;23.624;2024-03-25T05:19:14;12.88;;;6.28;;
84670;SDS011;74898;42.716;23.624;2024-03-25T05:21:39;18.90;;;7.43;;
84670;SDS011;74898;42.716;23.624;2024-03-25T05:24:05;15.35;;;7.18;;
84670;SDS011;74898;42.716;23.624;2024-03-25T05:26:31;18.75;;;7.22;;
84670;SDS011;74898;42.716;23.624;2024-03-25T05:28:56;12.73;;;6.05;;
84670;SDS011;74898;42.716;23.624;2024-03-25T05:31:22;13.30;;;6.43;;
84670;SDS011;74898;42.716;23.624;2024-03-25T05:33:49;16.13;;;6.30;;
84670;SDS011;74898;42.716;23.624;2024-03-25T05:36:14;14.65;;;6.43;;
84670;SDS011;74898;42.716;23.624;2024-03-25T05:38:40;14.50;;;6.63;;
84670;SDS011;74898;42.716;23.624;2024-03-25T05:41:07;15.18;;;6.80;;
84670;SDS011;74898;42.716;23.624;2024-03-25T05:43:34;15.60;;;6.35;;
84670;SDS011;74898;42.716;23.624;2024-03-25T05:46:00;20.42;;;7.60;;
84670;SDS011;74898;42.716;23.624;2024-03-25T05:48:26;10.52;;;5.82;;
84670;SDS011;74898;42.716;23.624;2024-03-25T05:51:01;13.00;;;6.90;;
84670;SDS011;74898;42.716;23.624;2024-03-25T05:53:30;14.35;;;6.50;;
84670;SDS011;74898;42.716;23.624;2024-03-25T05:55:56;18.00;;;7.35;;
84670;SDS011;74898;42.716;23.624;2024-03-25T05:58:22;12.98;;;6.50;;
84670;SDS011;74898;42.716;23.624;2024-03-25T06:00:47;19.05;;;7.35;;
84670;SDS011;74898;42.716;23.624;2024-03-25T06:03:14;15.65;;;6.38;;
84670;SDS011;74898;42.716;23.624;2024-03-25T06:05:40;15.70;;;6.63;;
84670;SDS011;74898;42.716;23.624;2024-03-25T06:08:06;14.52;;;6.75;;
84670;SDS011;74898;42.716;23.624;2024-03-25T06:10:43;14.10;;;6.93;;
84670;SDS011;74898;42.716;23.624;2024-03-25T06:13:09;16.25;;;6.78;;
84670;SDS011;74898;42.716;23.624;2024-03-25T06:15:35;14.85;;;6.00;;
84670;SDS011;74898;42.716;23.624;2024-03-25T06:18:00;17.35;;;7.10;;
84670;SDS011;74898;42.716;23.624;2024-03-25T06:20:26;14.80;;;6.80;;
84670;SDS011;74898;42.716;23.624;2024-03-25T06:22:51;17.73;;;7.35;;
84670;SDS011;74898;42.716;23.624;2024-03-25T06:25:17;12.43;;;5.82;;
84670;SDS011;74898;42.716;23.624;2024-03-25T06:27:42;12.35;;;6.20;;
84670;SDS011;74898;42.716;23.624;2024-03-25T06:30:09;13.40;;;6.78;;
84670;SDS011;74898;42.716;23.624;2024-03-25T06:32:54;14.55;;;5.78;;
84670;SDS011;74898;42.716;23.624;2024-03-25T06:35:38;13.52;;;5.95;;
84670;SDS011;74898;42.716;23.624;2024-03-25T06:38:04;14.45;;;6.18;;
84670;SDS011;74898;42.716;23.624;2024-03-25T06:40:29;12.85;;;6.60;;
84670;SDS011;74898;42.716;23.624;2024-03-25T06:42:56;9.85;;;5.15;;
84670;SDS011;74898;42.716;23.624;2024-03-25T06:45:21;11.65;;;6.25;;
84670;SDS011;74898;42.716;23.624;2024-03-25T06:47:47;9.68;;;5.20;;
84670;SDS011;74898;42.716;23.624;2024-03-25T06:50:12;9.55;;;5.47;;
84670;SDS011;74898;42.716;23.624;2024-03-25T06:52:38;11.85;;;5.07;;
84670;SDS011;74898;42.716;23.624;2024-03-25T06:55:03;8.25;;;5.22;;
84670;SDS011;74898;42.716;23.624;2024-03-25T06:57:29;9.13;;;4.50;;
84670;SDS011;74898;42.716;23.624;2024-03-25T06:59:55;12.50;;;5.50;;
84670;SDS011;74898;42.716;23.624;2024-03-25T07:02:22;11.80;;;6.03;;
84670;SDS011;74898;42.716;23.624;2024-03-25T07:04:48;10.02;;;5.35;;
84670;SDS011;74898;42.716;23.624;2024-03-25T07:07:14;9.55;;;5.20;;
84670;SDS011;74898;42.716;23.624;2024-03-25T07:09:39;9.32;;;5.65;;
84670;SDS011;74898;42.716;23.624;2024-03-25T07:12:05;9.45;;;5.07;;
84670;SDS011;74898;42.716;23.624;2024-03-25T07:14:30;9.85;;;5.13;;
84670;SDS011;74898;42.716;23.624;2024-03-25T07:16:56;10.02;;;5.25;;
84670;SDS011;74898;42.716;23.624;2024-03-25T07:19:21;12.82;;;5.55;;
84670;SDS011;74898;42.716;23.624;2024-03-25T07:21:47;11.63;;;5.53;;
84670;SDS011;74898;42.716;23.624;2024-03-25T07:24:12;10.80;;;5.53;;
84670;SDS011;74898;42.716;23.624;2024-03-25T07:26:38;9.82;;;5.35;;
84670;SDS011;74898;42.716;23.624;2024-03-25T07:29:03;8.63;;;5.05;;
84670;SDS011;74898;42.716;23.624;2024-03-25T07:31:29;8.77;;;4.90;;
84670;SDS011;74898;42.716;23.624;2024-03-25T07:33:54;8.05;;;4.85;;
84670;SDS011;74898;42.716;23.624;2024-03-25T07:36:20;11.05;;;5.93;;
84670;SDS011;74898;42.716;23.624;2024-03-25T07:38:45;9.25;;;5.43;;
84670;SDS011;74898;42.716;23.624;2024-03-25T07:41:11;9.30;;;5.43;;
84670;SDS011;74898;42.716;23.624;2024-03-25T07:43:37;8.00;;;5.05;;
84670;SDS011;74898;42.716;23.624;2024-03-25T07:46:02;10.20;;;5.03;;
84670;SDS011;74898;42.716;23.624;2024-03-25T07:48:28;7.15;;;3.55;;
84670;SDS011;74898;42.716;23.624;2024-03-25T07:50:53;7.45;;;4.30;;
84670;SDS011;74898;42.716;23.624;2024-03-25T07:53:19;8.32;;;4.70;;
84670;SDS011;74898;42.716;23.624;2024-03-25T07:55:44;10.63;;;5.25;;
84670;SDS011;74898;42.716;23.624;2024-03-25T07:58:10;6.88;;;4.13;;
84670;SDS011;74898;42.716;23.624;2024-03-25T08:00:35;8.05;;;5.30;;
84670;SDS011;74898;42.716;23.624;2024-03-25T08:03:01;10.15;;;5.15;;
84670;SDS011;74898;42.716;23.624;2024-03-25T08:05:26;8.48;;;5.10;;
84670;SDS011;74898;42.716;23.624;2024-03-25T08:07:55;8.38;;;4.90;;
84670;SDS011;74898;42.716;23.624;2024-03-25T08:10:20;9.52;;;5.32;;
84670;SDS011;74898;42.716;23.624;2024-03-25T08:12:46;10.73;;;5.78;;
84670;SDS011;74898;42.716;23.624;2024-03-25T08:15:11;8.00;;;4.82;;
84670;SDS011;74898;42.716;23.624;2024-03-25T08:17:38;9.20;;;5.35;;
84670;SDS011;74898;42.716;23.624;2024-03-25T08:20:04;10.65;;;5.53;;
84670;SDS011;74898;42.716;23.624;2024-03-25T08:22:30;8.85;;;5.45;;
84670;SDS011;74898;42.716;23.624;2024-03-25T08:24:56;10.85;;;5.10;;
84670;SDS011;74898;42.716;23.624;2024-03-25T08:27:21;11.68;;;5.97;;
84670;SDS011;74898;42.716;23.624;2024-03-25T08:29:47;10.90;;;6.38;;
84670;SDS011;74898;42.716;23.624;2024-03-25T08:32:14;11.75;;;6.13;;
84670;SDS011;74898;42.716;23.624;2024-03-25T08:34:39;6.80;;;4.70;;
84670;SDS011;74898;42.716;23.624;2024-03-25T08:37:05;7.20;;;3.85;;
84670;SDS011;74898;42.716;23.624;2024-03-25T08:39:30;7.28;;;3.72;;
84670;SDS011;74898;42.716;23.624;2024-03-25T08:41:56;8.00;;;4.85;;
84670;SDS011;74898;42.716;23.624;2024-03-25T08:44:21;6.30;;;4.15;;
84670;SDS011;74898;42.716;23.624;2024-03-25T08:46:47;5.78;;;4.07;;
84670;SDS011;74898;42.716;23.624;2024-03-25T08:49:12;8.75;;;4.80;;
84670;SDS011;74898;42.716;23.624;2024-03-25T08:51:38;6.70;;;3.97;;
84670;SDS011;74898;42.716;23.624;2024-03-25T08:54:03;7.63;;;4.50;;
84670;SDS011;74898;42.716;23.624;2024-03-25T08:56:29;7.90;;;4.82;;
84670;SDS011;74898;42.716;23.624;2024-03-25T08:58:54;6.93;;;4.68;;
84670;SDS011;74898;42.716;23.624;2024-03-25T09:01:20;8.15;;;5.15;;
84670;SDS011;74898;42.716;23.624;2024-03-25T09:03:48;7.95;;;5.43;;
84670;SDS011;74898;42.716;23.624;2024-03-25T09:06:14;7.90;;;4.63;;
84670;SDS011;74898;42.716;23.624;2024-03-25T09:08:41;8.18;;;4.00;;
84670;SDS011;74898;42.716;23.624;2024-03-25T09:11:25;9.18;;;5.40;;
84670;SDS011;74898;42.716;23.624;2024-03-25T09:13:52;8.48;;;4.93;;
84670;SDS011;74898;42.716;23.624;2024-03-25T09:16:18;7.20;;;4.18;;
84670;SDS011;74898;42.716;23.624;2024-03-25T09:18:44;9.27;;;4.78;;
84670;SDS011;74898;42.716;23.624;2024-03-25T09:21:09;7.38;;;4.93;;
84670;SDS011;74898;42.716;23.624;2024-03-25T09:23:36;5.45;;;4.22;;
84670;SDS011;74898;42.716;23.624;2024-03-25T09:26:02;7.50;;;4.20;;
84670;SDS011;74898;42.716;23.624;2024-03-25T09:28:27;8.05;;;4.68;;
84670;SDS011;74898;42.716;23.624;2024-03-25T09:30:53;4.97;;;3.67;;
84670;SDS011;74898;42.716;23.624;2024-03-25T09:33:19;5.53;;;4.32;;
84670;SDS011;74898;42.716;23.624;2024-03-25T09:35:44;5.18;;;3.88;;
84670;SDS011;74898;42.716;23.624;2024-03-25T09:38:10;5.38;;;3.55;;
84670;SDS011;74898;42.716;23.624;2024-03-25T09:40:35;5.65;;;4.22;;
84670;SDS011;74898;42.716;23.624;2024-03-25T09:43:05;6.10;;;4.22;;
84670;SDS011;74898;42.716;23.624;2024-03-25T09:45:42;9.32;;;4.28;;
84670;SDS011;74898;42.716;23.624;2024-03-25T09:48:13;7.00;;;4.13;;
84670;SDS011;74898;42.716;23.624;2024-03-25T09:50:41;6.53;;;3.63;;
84670;SDS011;74898;42.716;23.624;2024-03-25T09:53:09;5.43;;;3.50;;
84670;SDS011;74898;42.716;23.624;2024-03-25T09:55:34;6.63;;;4.75;;
84670;SDS011;74898;42.716;23.624;2024-03-25T09:58:00;4.63;;;3.55;;
84670;SDS011;74898;42.716;23.624;2024-03-25T10:00:27;6.90;;;4.40;;
84670;SDS011;74898;42.716;23.624;2024-03-25T10:02:53;6.97;;;4.20;;
84670;SDS011;74898;42.716;23.624;2024-03-25T10:05:19;5.85;;;4.18;;
84670;SDS011;74898;42.716;23.624;2024-03-25T10:07:45;6.20;;;4.55;;
84670;SDS011;74898;42.716;23.624;2024-03-25T10:10:11;6.68;;;4.53;;
84670;SDS011;74898;42.716;23.624;2024-03-25T10:12:36;6.40;;;4.10;;
84670;SDS011;74898;42.716;23.624;2024-03-25T10:15:02;5.68;;;4.28;;
84670;SDS011;74898;42.716;23.624;2024-03-25T10:17:32;5.45;;;3.50;;
84670;SDS011;74898;42.716;23.624;2024-03-25T10:19:57;5.55;;;3.83;;
84670;SDS011;74898;42.716;23.624;2024-03-25T10:22:23;6.15;;;4.13;;
84670;SDS011;74898;42.716;23.624;2024-03-25T10:24:48;5.50;;;4.03;;
84670;SDS011;74898;42.716;23.624;2024-03-25T10:27:19;5.88;;;4.15;;
84670;SDS011;74898;42.716;23.624;2024-03-25T10:29:55;7.60;;;4.32;;
84670;SDS011;74898;42.716;23.624;2024-03-25T10:32:21;6.18;;;4.35;;
84670;SDS011;74898;42.716;23.624;2024-03-25T10:34:50;4.80;;;3.88;;
84670;SDS011;74898;42.716;23.624;2024-03-25T10:37:16;4.75;;;3.30;;
84670;SDS011;74898;42.716;23.624;2024-03-25T10:39:48;5.32;;;3.90;;
84670;SDS011;74898;42.716;23.624;2024-03-25T10:42:18;5.55;;;4.32;;
84670;SDS011;74898;42.716;23.624;2024-03-25T10:44:44;5.97;;;3.65;;
84670;SDS011;74898;42.716;23.624;2024-03-25T10:47:11;6.75;;;4.65;;
84670;SDS011;74898;42.716;23.624;2024-03-25T10:52:08;4.38;;;3.47;;
84670;SDS011;74898;42.716;23.624;2024-03-25T10:57:03;5.85;;;3.50;;
84670;SDS011;74898;42.716;23.624;2024-03-25T10:59:29;6.30;;;3.95;;
84670;SDS011;74898;42.716;23.624;2024-03-25T11:01:55;4.85;;;3.83;;
84670;SDS011;74898;42.716;23.624;2024-03-25T11:04:22;5.47;;;3.97;;
84670;SDS011;74898;42.716;23.624;2024-03-25T11:06:49;6.95;;;4.25;;
84670;SDS011;74898;42.716;23.624;2024-03-25T11:09:21;5.07;;;3.78;;
84670;SDS011;74898;42.716;23.624;2024-03-25T11:11:53;4.60;;;3.63;;
84670;SDS011;74898;42.716;23.624;2024-03-25T11:14:18;5.25;;;3.88;;
84670;SDS011;74898;42.716;23.624;2024-03-25T11:16:51;5.60;;;3.58;;
84670;SDS011;74898;42.716;23.624;2024-03-25T11:19:17;4.07;;;3.22;;
84670;SDS011;74898;42.716;23.624;2024-03-25T11:21:43;4.85;;;2.78;;
84670;SDS011;74898;42.716;23.624;2024-03-25T11:24:09;2.15;;;1.52;;
84670;SDS011;74898;42.716;23.624;2024-03-25T11:26:34;2.03;;;1.73;;
84670;SDS011;74898;42.716;23.624;2024-03-25T11:29:05;3.28;;;2.30;;
84670;SDS011;74898;42.716;23.624;2024-03-25T11:31:30;4.90;;;2.75;;
84670;SDS011;74898;42.716;23.624;2024-03-25T11:34:03;3.33;;;2.75;;
84670;SDS011;74898;42.716;23.624;2024-03-25T11:36:29;4.97;;;2.47;;
84670;SDS011;74898;42.716;23.624;2024-03-25T11:39:02;8.20;;;4.10;;
84670;SDS011;74898;42.716;23.624;2024-03-25T11:41:32;8.57;;;3.80;;
84670;SDS011;74898;42.716;23.624;2024-03-25T11:43:58;4.63;;;3.13;;
84670;SDS011;74898;42.716;23.624;2024-03-25T11:46:25;4.50;;;2.55;;
84670;SDS011;74898;42.716;23.624;2024-03-25T11:48:52;3.28;;;2.35;;
84670;SDS011;74898;42.716;23.624;2024-03-25T11:51:18;3.03;;;2.45;;
84670;SDS011;74898;42.716;23.624;2024-03-25T11:53:44;2.92;;;2.50;;
84670;SDS011;74898;42.716;23.624;2024-03-25T11:56:13;6.00;;;2.80;;
84670;SDS011;74898;42.716;23.624;2024-03-25T11:58:39;4.05;;;2.53;;
84670;SDS011;74898;42.716;23.624;2024-03-25T12:01:05;3.35;;;2.22;;
84670;SDS011;74898;42.716;23.624;2024-03-25T12:03:31;2.88;;;2.10;;
84670;SDS011;74898;42.716;23.624;2024-03-25T12:05:58;2.10;;;1.85;;
84670;SDS011;74898;42.716;23.624;2024-03-25T12:08:24;3.83;;;2.50;;
84670;SDS011;74898;42.716;23.624;2024-03-25T12:10:51;2.75;;;2.03;;
84670;SDS011;74898;42.716;23.624;2024-03-25T12:13:37;2.92;;;2.20;;
84670;SDS011;74898;42.716;23.624;2024-03-25T12:16:07;3.17;;;2.53;;
84670;SDS011;74898;42.716;23.624;2024-03-25T12:18:35;4.50;;;3.03;;
84670;SDS011;74898;42.716;23.624;2024-03-25T12:21:01;4.90;;;3.28;;
84670;SDS011;74898;42.716;23.624;2024-03-25T12:23:30;8.43;;;3.80;;
84670;SDS011;74898;42.716;23.624;2024-03-25T12:25:56;6.05;;;3.85;;
84670;SDS011;74898;42.716;23.624;2024-03-25T12:28:24;8.15;;;3.28;;
84670;SDS011;74898;42.716;23.624;2024-03-25T12:30:50;4.05;;;2.92;;
84670;SDS011;74898;42.716;23.624;2024-03-25T12:33:20;6.63;;;3.35;;
84670;SDS011;74898;42.716;23.624;2024-03-25T12:35:47;3.90;;;2.53;;
84670;SDS011;74898;42.716;23.624;2024-03-25T12:38:30;5.97;;;3.80;;
84670;SDS011;74898;42.716;23.624;2024-03-25T12:43:32;5.25;;;3.42;;
84670;SDS011;74898;42.716;23.624;2024-03-25T12:45:59;3.65;;;2.75;;
84670;SDS011;74898;42.716;23.624;2024-03-25T12:48:25;4.95;;;3.10;;
84670;SDS011;74898;42.716;23.624;2024-03-25T12:50:51;4.68;;;3.10;;
84670;SDS011;74898;42.716;23.624;2024-03-25T12:53:17;7.55;;;3.72;;
84670;SDS011;74898;42.716;23.624;2024-03-25T12:55:44;4.88;;;2.60;;
84670;SDS011;74898;42.716;23.624;2024-03-25T12:58:11;4.70;;;3.03;;
84670;SDS011;74898;42.716;23.624;2024-03-25T13:00:36;4.97;;;2.95;;
84670;SDS011;74898;42.716;23.624;2024-03-25T13:03:03;3.67;;;2.55;;
84670;SDS011;74898;42.716;23.624;2024-03-25T13:05:33;4.47;;;2.50;;
84670;SDS011;74898;42.716;23.624;2024-03-25T13:07:59;2.10;;;1.90;;
84670;SDS011;74898;42.716;23.624;2024-03-25T13:10:26;3.20;;;2.83;;
84670;SDS011;74898;42.716;23.624;2024-03-25T13:12:52;2.50;;;2.15;;
84670;SDS011;74898;42.716;23.624;2024-03-25T13:15:18;2.55;;;2.10;;
84670;SDS011;74898;42.716;23.624;2024-03-25T13:17:43;2.55;;;2.35;;
84670;SDS011;74898;42.716;23.624;2024-03-25T13:20:09;2.58;;;2.20;;
84670;SDS011;74898;42.716;23.624;2024-03-25T13:22:35;3.08;;;2.53;;
84670;SDS011;74898;42.716;23.624;2024-03-25T13:25:00;3.30;;;2.60;;
84670;SDS011;74898;42.716;23.624;2024-03-25T13:27:26;3.20;;;2.55;;
84670;SDS011;74898;42.716;23.624;2024-03-25T13:29:51;3.97;;;2.55;;
84670;SDS011;74898;42.716;23.624;2024-03-25T13:32:20;4.80;;;2.25;;
84670;SDS011;74898;42.716;23.624;2024-03-25T13:34:46;3.67;;;2.50;;
84670;SDS011;74898;42.716;23.624;2024-03-25T13:37:11;3.25;;;2.50;;
84670;SDS011;74898;42.716;23.624;2024-03-25T13:39:37;3.00;;;2.38;;
84670;SDS011;74898;42.716;23.624;2024-03-25T13:42:03;3.47;;;2.50;;
84670;SDS011;74898;42.716;23.624;2024-03-25T13:44:28;3.65;;;2.60;;
84670;SDS011;74898;42.716;23.624;2024-03-25T13:46:54;3.70;;;2.50;;
84670;SDS011;74898;42.716;23.624;2024-03-25T13:49:20;3.95;;;2.55;;
84670;SDS011;74898;42.716;23.624;2024-03-25T13:51:48;3.65;;;2.63;;
84670;SDS011;74898;42.716;23.624;2024-03-25T13:54:13;2.85;;;2.33;;
84670;SDS011;74898;42.716;23.624;2024-03-25T13:56:39;3.88;;;2.58;;
84670;SDS011;74898;42.716;23.624;2024-03-25T13:59:07;3.85;;;2.80;;
84670;SDS011;74898;42.716;23.624;2024-03-25T14:01:32;3.67;;;2.00;;
84670;SDS011;74898;42.716;23.624;2024-03-25T14:03:58;3.05;;;2.40;;
84670;SDS011;74898;42.716;23.624;2024-03-25T14:06:24;2.50;;;2.00;;
84670;SDS011;74898;42.716;23.624;2024-03-25T14:08:50;2.53;;;2.20;;
84670;SDS011;74898;42.716;23.624;2024-03-25T14:11:16;2.40;;;1.80;;
84670;SDS011;74898;42.716;23.624;2024-03-25T14:13:41;2.15;;;1.80;;
84670;SDS011;74898;42.716;23.624;2024-03-25T14:16:07;2.20;;;1.88;;
84670;SDS011;74898;42.716;23.624;2024-03-25T14:18:32;1.80;;;1.70;;
84670;SDS011;74898;42.716;23.624;2024-03-25T14:20:58;1.63;;;1.52;;
84670;SDS011;74898;42.716;23.624;2024-03-25T14:23:24;1.95;;;1.50;;
84670;SDS011;74898;42.716;23.624;2024-03-25T14:25:49;2.20;;;1.65;;
84670;SDS011;74898;42.716;23.624;2024-03-25T14:28:15;3.15;;;2.20;;
84670;SDS011;74898;42.716;23.624;2024-03-25T14:30:40;2.70;;;1.75;;
84670;SDS011;74898;42.716;23.624;2024-03-25T14:33:06;2.13;;;1.60;;
84670;SDS011;74898;42.716;23.624;2024-03-25T14:35:31;3.35;;;2.00;;
84670;SDS011;74898;42.716;23.624;2024-03-25T14:37:57;5.88;;;1.95;;